首页
METAR-TAF:

METAR-TAF

机场 :

富國國際機場

富國島, 越南

纬度: 10-10-18N, 经度: 103-59-28E, 海拔: 11米

当前天气观测

该预报发布于52分钟前的16:00 UTC
风速6节,风向东转东北
温度 28°C
湿度 70%
气压 1012 hPa
能见度10公里或以上
少量云层高于1500英尺
少量云层高于1700英尺, 积雨云.
散云层高于4000英尺

METAR: VVPQ 131600Z 06006KT 9999 FEW015 FEW017CB SCT040 28/22 Q1012 NOSIG CB/SE

时间: 23:52 (16:52 UTC)

预报

该预报发布于4小时和41分钟前的12:11 UTC
预报有效从13日的 12点(UTC)到 14日的 12点(UTC)
风速6节,风向东转东北
能见度10公里或以上
散云层高于1500英尺
散云层高于4000英尺
成为
从 13日的 23点(UTC)到 13日的 24点(UTC)
风速12节,风向东北
短暂存在
从 14日的 01点(UTC)到 14日的 05点(UTC)
风速15节,风向东北,有时为26节阵风

TAF: VVPQ 131211Z 1312/1412 06006KT 9999 SCT015 SCT040 BECMG 1323/1324 05012KT TEMPO 1401/1405 04015G26KT

超过4000个机场的气象观测和天气预报(METAR&TAF报告)。

可查询的气象台以黄色和红色小点在地图上表示。

将鼠标移到小点上方,可查看气象台名称。

然后点击查看天气观测和预报。

如需切换地图:点击带黑十字的绿色按钮放大地图;点击带横线的绿色按钮缩小地图;或者点击绿色箭头查看邻近地区的地图。


METAR-TAF: